Time;durP1;ratioP1;P1;durP2;ratioP2;P2;SDS_P1;SDS_P2;PMS_P1;PMS_P2;Temp;Humidity;BMP_temperature;BMP_pressure;BME280_temperature;BME280_humidity;BME280_pressure;Samples;Min_cycle;Max_cycle;Signal;HPM_P1;HPM_P2
2024/02/02 00:00:55;;;;;;;10.07;3.13;;;10.20;65.90;11.90;102868.00;;;;5040208;28;20278;-76
2024/02/02 00:03:22;;;;;;;8.77;3.00;;;10.20;65.90;11.90;102861.00;;;;5036874;28;20732;-76
2024/02/02 00:05:49;;;;;;;7.65;3.22;;;10.20;65.90;11.90;102877.00;;;;5038248;28;20654;-75
2024/02/02 00:08:16;;;;;;;5.22;2.63;;;10.20;66.00;11.90;102862.00;;;;5051667;28;20235;-76
2024/02/02 00:10:43;;;;;;;7.38;3.35;;;10.20;65.90;11.90;102859.00;;;;5036282;28;20214;-76
2024/02/02 00:13:11;;;;;;;9.65;3.20;;;10.20;65.90;11.90;102854.00;;;;5038637;28;20203;-75
2024/02/02 00:15:38;;;;;;;8.23;3.45;;;10.20;65.90;11.90;102846.00;;;;5038025;28;20192;-75
2024/02/02 00:18:06;;;;;;;7.80;2.60;;;10.20;65.90;11.90;102845.00;;;;5051782;28;20203;-75
2024/02/02 00:20:33;;;;;;;10.52;2.90;;;10.20;66.00;11.90;102838.00;;;;5035933;28;20705;-76
2024/02/02 00:23:00;;;;;;;9.20;3.42;;;10.20;66.00;11.90;102829.00;;;;5040659;28;20192;-75
2024/02/02 00:25:27;;;;;;;13.02;3.15;;;10.20;66.00;12.00;102834.00;;;;5042210;28;20198;-76
2024/02/02 00:27:54;;;;;;;11.88;2.75;;;10.20;66.00;12.00;102840.00;;;;5048158;28;20724;-75
2024/02/02 00:30:22;;;;;;;13.50;3.10;;;10.20;66.00;12.00;102849.00;;;;5040815;28;20689;-76
2024/02/02 00:32:49;;;;;;;6.75;2.42;;;10.20;66.00;12.00;102852.00;;;;5032710;28;20196;-76
2024/02/02 00:35:16;;;;;;;10.73;3.50;;;10.30;66.00;12.00;102859.00;;;;5035417;28;20283;-75
2024/02/02 00:37:44;;;;;;;8.18;2.70;;;10.30;66.00;12.00;102860.00;;;;5033923;28;20196;-76
2024/02/02 00:40:11;;;;;;;6.47;3.13;;;10.30;66.00;12.00;102865.00;;;;5046704;28;20257;-76
2024/02/02 00:42:38;;;;;;;11.35;2.90;;;10.30;66.10;12.00;102855.00;;;;5039841;28;20195;-76
2024/02/02 00:45:07;;;;;;;8.65;2.72;;;10.30;66.00;12.00;102858.00;;;;5046567;28;20280;-76
2024/02/02 00:47:36;;;;;;;6.97;2.65;;;10.30;66.10;12.00;102847.00;;;;5038566;28;20275;-76
2024/02/02 00:50:05;;;;;;;9.18;2.97;;;10.30;66.10;12.10;102842.00;;;;5032430;28;20184;-75
2024/02/02 00:52:32;;;;;;;5.60;2.50;;;10.30;66.10;12.10;102833.00;;;;5039878;28;20237;-75
2024/02/02 00:55:00;;;;;;;9.38;2.42;;;10.30;66.00;12.10;102842.00;;;;5035959;28;20199;-76
2024/02/02 00:57:29;;;;;;;7.82;2.85;;;10.40;66.10;12.10;102845.00;;;;5042074;28;20192;-76
2024/02/02 00:59:56;;;;;;;10.35;3.83;;;10.30;66.00;12.10;102843.00;;;;5048851;28;20195;-76
2024/02/02 01:02:23;;;;;;;7.32;2.35;;;10.40;66.10;12.10;102833.00;;;;5043220;28;20192;-76
2024/02/02 01:04:51;;;;;;;6.80;2.13;;;10.40;66.10;12.10;102823.00;;;;5044036;28;20226;-76
2024/02/02 01:07:18;;;;;;;6.90;2.13;;;10.40;66.10;12.10;102838.00;;;;5045094;28;20207;-75
2024/02/02 01:09:45;;;;;;;7.15;2.63;;;10.40;66.10;12.10;102820.00;;;;5038844;28;20224;-75
2024/02/02 01:12:13;;;;;;;8.20;2.40;;;10.40;66.00;12.20;102827.00;;;;5039069;28;20208;-75
2024/02/02 01:14:40;;;;;;;8.85;2.40;;;10.50;66.10;12.20;102819.00;;;;5052018;28;20223;-75
2024/02/02 01:17:08;;;;;;;6.45;2.45;;;10.50;66.00;12.20;102812.00;;;;5050059;28;20278;-75
2024/02/02 01:19:36;;;;;;;5.43;1.88;;;10.50;66.00;12.20;102811.00;;;;5043576;28;20645;-75
2024/02/02 01:22:05;;;;;;;9.38;2.28;;;10.50;66.00;12.20;102803.00;;;;5034079;28;20200;-75
2024/02/02 01:24:33;;;;;;;5.75;1.73;;;10.50;65.90;12.20;102801.00;;;;5051711;28;20187;-75
2024/02/02 01:27:00;;;;;;;9.85;2.80;;;10.50;65.90;12.20;102803.00;;;;5044221;28;20192;-75
2024/02/02 01:29:27;;;;;;;8.35;2.95;;;10.50;65.90;12.20;102818.00;;;;5034149;28;20218;-75
2024/02/02 01:31:54;;;;;;;10.10;2.42;;;10.50;65.80;12.20;102818.00;;;;5035781;28;20195;-75
2024/02/02 01:34:22;;;;;;;5.95;1.98;;;10.50;66.50;12.20;102806.00;;;;5042132;28;20192;-75
2024/02/02 01:36:49;;;;;;;5.28;1.90;;;10.60;65.80;12.30;102806.00;;;;5044887;28;20200;-76
2024/02/02 01:39:18;;;;;;;6.25;2.22;;;10.60;65.80;12.20;102804.00;;;;5034303;28;20216;-75
2024/02/02 01:41:45;;;;;;;8.75;2.50;;;10.60;65.80;12.30;102803.00;;;;5037582;28;20192;-75
2024/02/02 01:44:12;;;;;;;9.68;2.13;;;10.60;65.70;12.30;102786.00;;;;5048184;28;20202;-75
2024/02/02 01:46:39;;;;;;;8.60;2.20;;;10.60;65.70;12.30;102772.00;;;;5032439;28;20192;-75
2024/02/02 01:49:07;;;;;;;6.75;1.95;;;10.60;65.70;12.30;102762.00;;;;5051332;28;20559;-75
2024/02/02 01:51:34;;;;;;;8.88;2.60;;;10.60;65.60;12.30;102755.00;;;;5050535;28;20196;-75
2024/02/02 01:54:01;;;;;;;11.35;3.22;;;10.60;65.60;12.30;102738.00;;;;5048273;28;20198;-75
2024/02/02 01:56:29;;;;;;;8.45;2.30;;;10.60;65.50;12.20;102753.00;;;;5046465;28;20533;-74
2024/02/02 01:58:57;;;;;;;8.00;1.92;;;10.60;65.50;12.20;102760.00;;;;5039438;28;20199;-75
2024/02/02 02:01:24;;;;;;;10.77;3.65;;;10.60;65.40;12.20;102758.00;;;;5041032;28;20192;-75
2024/02/02 02:03:51;;;;;;;6.85;2.75;;;10.60;65.40;12.20;102753.00;;;;5049748;28;20569;-75
2024/02/02 02:06:18;;;;;;;13.43;2.92;;;10.60;65.40;12.20;102749.00;;;;5049599;28;20549;-75
2024/02/02 02:08:46;;;;;;;11.15;2.72;;;10.60;65.40;12.20;102747.00;;;;5036372;28;20223;-75
2024/02/02 02:11:14;;;;;;;6.55;2.40;;;10.60;65.30;12.20;102749.00;;;;5032102;28;20325;-75
2024/02/02 02:13:42;;;;;;;10.55;3.17;;;10.60;65.30;12.20;102749.00;;;;5036502;28;20270;-75
2024/02/02 02:16:09;;;;;;;7.80;2.55;;;10.60;65.40;12.20;102753.00;;;;5038871;28;20206;-75
2024/02/02 02:18:37;;;;;;;7.88;3.33;;;10.50;65.20;12.30;102748.00;;;;5037318;28;20192;-75
2024/02/02 02:21:23;;;;;;;12.55;3.75;;;10.60;65.40;12.10;102745.00;;;;5033151;28;20232;-75
2024/02/02 02:23:50;;;;;;;8.77;3.05;;;10.60;65.20;12.20;102746.00;;;;5033788;28;20202;-75
2024/02/02 02:26:17;;;;;;;10.00;3.38;;;10.60;65.20;12.20;102754.00;;;;5034304;28;20321;-75
2024/02/02 02:28:45;;;;;;;10.82;3.53;;;10.60;65.10;12.20;102753.00;;;;5032195;28;20696;-75
2024/02/02 02:31:13;;;;;;;10.48;3.10;;;10.60;65.10;12.20;102754.00;;;;5038115;28;20203;-75
2024/02/02 02:33:40;;;;;;;14.05;4.47;;;10.60;65.00;12.20;102747.00;;;;5051221;28;20225;-75
2024/02/02 02:36:10;;;;;;;6.68;2.63;;;10.60;65.00;12.20;102738.00;;;;5042756;28;20200;-75
2024/02/02 02:38:37;;;;;;;9.63;4.03;;;10.60;64.90;12.20;102737.00;;;;5035164;28;20211;-75
2024/02/02 02:41:05;;;;;;;7.05;2.83;;;10.60;65.00;12.20;102722.00;;;;5047634;28;20200;-74
2024/02/02 02:43:32;;;;;;;11.13;3.72;;;10.60;64.90;12.20;102715.00;;;;5039328;28;20196;-75
2024/02/02 02:45:59;;;;;;;9.00;3.30;;;10.60;64.90;12.20;102711.00;;;;5031686;28;20287;-75
2024/02/02 02:48:26;;;;;;;6.45;2.92;;;10.50;64.80;12.20;102708.00;;;;5035141;28;20227;-75
2024/02/02 02:50:53;;;;;;;8.38;2.90;;;10.50;64.80;12.10;102709.00;;;;5034724;28;20188;-75
2024/02/02 02:53:22;;;;;;;10.00;3.47;;;10.50;64.70;12.10;102711.00;;;;5035553;28;20211;-75
2024/02/02 02:55:49;;;;;;;10.57;3.50;;;10.50;64.70;12.10;102699.00;;;;5034504;28;20188;-75
2024/02/02 02:58:16;;;;;;;9.90;2.80;;;10.50;64.60;12.10;102694.00;;;;5040229;28;20284;-75
2024/02/02 03:00:43;;;;;;;11.40;2.50;;;10.50;64.60;12.10;102692.00;;;;5035312;28;20280;-75
2024/02/02 03:03:11;;;;;;;9.10;3.22;;;10.50;64.60;12.10;102692.00;;;;5035240;28;20237;-75
2024/02/02 03:05:39;;;;;;;6.72;2.70;;;10.50;64.60;12.00;102678.00;;;;5038053;28;20192;-75
2024/02/02 03:08:07;;;;;;;14.02;3.38;;;10.50;64.50;12.00;102676.00;;;;5054297;28;20253;-75
2024/02/02 03:10:35;;;;;;;11.73;3.38;;;10.40;64.40;12.00;102662.00;;;;5034829;28;20199;-75
2024/02/02 03:13:02;;;;;;;10.40;2.80;;;10.40;64.40;12.00;102654.00;;;;5035009;28;20561;-75
2024/02/02 03:15:31;;;;;;;11.40;3.20;;;10.40;64.30;11.90;102652.00;;;;5052471;28;20199;-75
2024/02/02 03:17:58;;;;;;;7.10;2.80;;;10.30;64.30;11.90;102658.00;;;;5047276;28;20196;-75
2024/02/02 03:20:27;;;;;;;8.98;2.88;;;10.30;64.30;11.80;102648.00;;;;5036501;28;20226;-75
2024/02/02 03:22:54;;;;;;;6.78;3.10;;;10.30;64.30;11.80;102661.00;;;;5047820;28;20196;-75
2024/02/02 03:25:21;;;;;;;10.40;2.72;;;10.20;64.20;11.80;102666.00;;;;5039074;28;20196;-75
2024/02/02 03:27:49;;;;;;;8.63;2.97;;;10.20;64.30;11.80;102660.00;;;;5040716;28;20239;-74
2024/02/02 03:30:17;;;;;;;9.27;2.35;;;10.20;64.30;11.70;102660.00;;;;5042386;28;20217;-75
2024/02/02 03:32:44;;;;;;;9.02;2.70;;;10.20;64.40;11.70;102671.00;;;;5040494;28;20219;-75
2024/02/02 03:35:12;;;;;;;8.68;2.47;;;10.10;64.30;11.70;102666.00;;;;5034876;28;20572;-75
2024/02/02 03:37:39;;;;;;;9.43;2.85;;;10.10;64.30;11.70;102658.00;;;;5034136;28;20630;-75
2024/02/02 03:40:08;;;;;;;11.05;2.95;;;10.10;64.40;11.70;102667.00;;;;5034249;28;20196;-75
2024/02/02 03:42:36;;;;;;;6.68;2.53;;;10.10;64.50;11.70;102662.00;;;;5041060;28;20279;-75
2024/02/02 03:45:06;;;;;;;8.50;2.65;;;10.10;64.50;11.70;102655.00;;;;5053431;28;20287;-75
2024/02/02 03:47:33;;;;;;;10.02;3.03;;;10.10;64.60;11.70;102651.00;;;;5034461;28;20196;-75
2024/02/02 03:50:00;;;;;;;5.80;2.38;;;10.00;64.60;11.60;102653.00;;;;5041914;28;20306;-75
2024/02/02 03:52:27;;;;;;;6.90;2.80;;;10.00;64.60;11.60;102652.00;;;;5048776;28;20216;-76
2024/02/02 03:54:54;;;;;;;8.25;2.42;;;10.10;64.70;11.60;102656.00;;;;5042928;28;20258;-75
2024/02/02 03:57:21;;;;;;;6.32;2.38;;;10.00;64.70;11.70;102651.00;;;;5047154;28;20618;-76
2024/02/02 03:59:48;;;;;;;9.63;2.63;;;10.00;64.60;11.60;102655.00;;;;5043528;28;20196;-75
2024/02/02 04:02:17;;;;;;;9.48;2.00;;;10.00;64.60;11.60;102648.00;;;;5033251;28;20283;-75
2024/02/02 04:04:45;;;;;;;7.32;2.40;;;10.00;64.60;11.60;102650.00;;;;5044109;28;20681;-75
2024/02/02 04:07:12;;;;;;;8.25;1.92;;;10.00;64.70;11.60;102655.00;;;;5043419;28;20560;-75
2024/02/02 04:09:39;;;;;;;7.38;2.50;;;10.00;64.70;11.70;102649.00;;;;5033754;28;20355;-75
2024/02/02 04:12:07;;;;;;;5.13;2.28;;;10.00;64.70;11.70;102642.00;;;;5040606;28;20200;-76
2024/02/02 04:14:34;;;;;;;8.82;2.72;;;10.00;64.70;11.70;102646.00;;;;5050436;28;20184;-75
2024/02/02 04:17:01;;;;;;;5.20;2.25;;;10.10;64.80;11.70;102648.00;;;;5035723;28;20874;-75
2024/02/02 04:19:30;;;;;;;4.47;2.15;;;10.00;64.80;11.70;102650.00;;;;5039634;28;20279;-75
2024/02/02 04:21:57;;;;;;;7.97;2.30;;;10.10;64.80;11.70;102651.00;;;;5051743;28;20191;-75
2024/02/02 04:24:24;;;;;;;7.53;2.17;;;10.10;64.90;11.70;102648.00;;;;5036194;28;20196;-75
2024/02/02 04:26:51;;;;;;;11.50;2.55;;;10.10;64.90;11.70;102645.00;;;;5035780;28;20276;-74
2024/02/02 04:29:18;;;;;;;6.40;2.35;;;10.00;64.90;11.70;102651.00;;;;5033351;28;20224;-74
2024/02/02 04:31:45;;;;;;;7.18;2.22;;;10.10;64.90;11.70;102633.00;;;;5034840;28;20729;-75
2024/02/02 04:34:12;;;;;;;10.10;3.05;;;10.10;64.90;11.70;102631.00;;;;5034737;28;20703;-75
2024/02/02 04:36:41;;;;;;;10.23;2.40;;;10.10;65.00;11.70;102627.00;;;;5032712;28;20188;-75
2024/02/02 04:39:09;;;;;;;7.63;2.65;;;10.10;65.00;11.70;102626.00;;;;5034148;28;20219;-75
2024/02/02 04:41:36;;;;;;;8.93;2.20;;;10.10;65.10;11.70;102618.00;;;;5033317;28;20196;-75
2024/02/02 04:44:03;;;;;;;5.57;2.60;;;10.10;65.10;11.70;102612.00;;;;5035895;28;20196;-74
2024/02/02 04:46:30;;;;;;;6.55;1.88;;;10.10;65.00;11.70;102615.00;;;;5032900;28;20250;-75
2024/02/02 04:48:57;;;;;;;8.93;2.78;;;10.10;65.00;11.70;102611.00;;;;5033003;28;20576;-75
2024/02/02 04:51:24;;;;;;;9.23;2.50;;;10.10;65.00;11.70;102599.00;;;;5034526;28;20207;-74
2024/02/02 04:53:53;;;;;;;6.05;2.20;;;10.10;65.00;11.70;102594.00;;;;5034879;28;20685;-74
2024/02/02 04:56:20;;;;;;;7.80;1.95;;;10.10;64.90;11.70;102597.00;;;;5043194;28;20267;-75
2024/02/02 04:58:51;;;;;;;9.52;2.67;;;10.10;65.00;11.70;102589.00;;;;5037163;28;20195;-75
2024/02/02 05:01:19;;;;;;;8.68;1.80;;;10.10;65.00;11.60;102599.00;;;;5047543;28;20219;-75
2024/02/02 05:03:46;;;;;;;5.00;1.92;;;10.10;65.00;11.60;102594.00;;;;5037499;28;20239;-74
2024/02/02 05:06:16;;;;;;;10.23;2.60;;;10.10;65.00;11.60;102589.00;;;;5043806;28;20195;-75
2024/02/02 05:08:44;;;;;;;7.75;2.75;;;10.00;65.00;11.60;102587.00;;;;5032009;28;20239;-75
2024/02/02 05:11:13;;;;;;;17.05;2.83;;;10.00;65.00;11.50;102586.00;;;;5036716;28;20587;-75
2024/02/02 05:13:40;;;;;;;8.02;1.90;;;10.00;65.00;11.50;102587.00;;;;5049684;28;20200;-75
2024/02/02 05:16:08;;;;;;;4.03;1.70;;;10.00;65.10;11.50;102583.00;;;;5050069;28;20184;-75
2024/02/02 05:18:35;;;;;;;10.60;1.90;;;10.00;65.20;11.50;102585.00;;;;5038290;28;20197;-75
2024/02/02 05:21:02;;;;;;;4.78;1.58;;;9.90;65.10;11.50;102579.00;;;;5032047;28;20207;-76
2024/02/02 05:23:29;;;;;;;5.05;1.58;;;9.90;65.20;11.50;102573.00;;;;5046973;28;20708;-75
2024/02/02 05:25:56;;;;;;;8.90;2.00;;;9.90;65.20;11.40;102573.00;;;;5046895;28;20199;-75
2024/02/02 05:28:25;;;;;;;13.02;2.00;;;9.90;65.20;11.40;102558.00;;;;5038830;28;20645;-75
2024/02/02 05:30:52;;;;;;;6.93;2.03;;;9.90;65.40;11.40;102555.00;;;;5044391;28;20226;-75
2024/02/02 05:33:19;;;;;;;11.05;2.45;;;9.80;65.30;11.40;102567.00;;;;5036766;28;20187;-74
2024/02/02 05:35:46;;;;;;;11.23;2.30;;;9.80;65.30;11.40;102570.00;;;;5040143;28;20210;-74
2024/02/02 05:38:13;;;;;;;7.32;1.55;;;9.80;65.40;11.40;102560.00;;;;5039764;28;20203;-76
2024/02/02 05:40:40;;;;;;;9.00;2.20;;;9.80;65.40;11.40;102564.00;;;;5041541;28;20183;-75
2024/02/02 05:43:08;;;;;;;7.13;1.92;;;9.80;65.50;11.40;102556.00;;;;5049652;28;20196;-75
2024/02/02 05:45:36;;;;;;;12.98;2.95;;;9.80;65.50;11.30;102559.00;;;;5036441;28;20210;-74
2024/02/02 05:48:04;;;;;;;5.55;1.70;;;9.80;65.70;11.30;102550.00;;;;5037710;28;20664;-75
2024/02/02 05:50:31;;;;;;;6.50;2.03;;;9.70;65.60;11.30;102563.00;;;;5047621;28;20771;-75
2024/02/02 05:52:58;;;;;;;6.30;1.70;;;9.70;65.60;11.30;102553.00;;;;5040306;28;20212;-75
2024/02/02 05:55:24;;;;;;;7.32;2.33;;;9.70;65.80;11.30;102562.00;;;;5044744;28;20605;-75
2024/02/02 05:57:51;;;;;;;5.13;1.80;;;9.70;65.70;11.30;102554.00;;;;5033782;28;20291;-76
2024/02/02 06:00:19;;;;;;;8.18;2.42;;;9.70;65.80;11.30;102560.00;;;;5031100;28;20196;-75
2024/02/02 06:02:48;;;;;;;9.13;2.55;;;9.70;65.80;11.20;102564.00;;;;5036344;28;20200;-74
2024/02/02 06:05:15;;;;;;;11.25;2.35;;;9.70;65.90;11.20;102569.00;;;;5032177;28;20228;-78
2024/02/02 06:07:42;;;;;;;9.77;2.75;;;9.70;66.00;11.30;102568.00;;;;5043143;28;20203;-75
2024/02/02 06:10:10;;;;;;;6.38;2.35;;;9.70;66.10;11.30;102566.00;;;;5037750;28;20224;-75
2024/02/02 06:12:37;;;;;;;8.68;2.47;;;9.70;66.10;11.20;102572.00;;;;5033421;28;20663;-75
2024/02/02 06:15:05;;;;;;;9.40;2.25;;;9.70;66.20;11.30;102574.00;;;;5047779;28;20196;-75
2024/02/02 06:17:32;;;;;;;11.05;2.80;;;9.70;66.40;11.30;102574.00;;;;5045583;28;20246;-75
2024/02/02 06:20:01;;;;;;;6.25;2.10;;;9.70;66.20;11.30;102581.00;;;;5048021;28;20279;-76
2024/02/02 06:22:28;;;;;;;8.32;2.42;;;9.70;66.30;11.30;102580.00;;;;5045244;28;20192;-75
2024/02/02 06:24:55;;;;;;;9.48;3.05;;;9.70;66.30;11.30;102573.00;;;;5053318;28;20198;-75
2024/02/02 06:27:22;;;;;;;14.75;2.42;;;9.70;66.40;11.30;102571.00;;;;5043160;28;20212;-74
2024/02/02 06:29:50;;;;;;;7.43;2.53;;;9.70;66.40;11.30;102573.00;;;;5036664;28;21056;-75
2024/02/02 06:32:21;;;;;;;16.00;3.65;;;9.80;66.60;11.40;102573.00;;;;5051408;28;20196;-76
2024/02/02 06:34:48;;;;;;;5.45;2.00;;;9.70;66.60;11.40;102578.00;;;;5035180;28;20206;-76
2024/02/02 06:37:18;;;;;;;6.57;2.33;;;9.80;66.60;11.40;102572.00;;;;5035501;28;20188;-76
2024/02/02 06:39:46;;;;;;;13.25;2.78;;;9.80;66.50;11.40;102581.00;;;;5040095;28;20223;-76
2024/02/02 06:42:13;;;;;;;8.30;2.60;;;9.80;66.60;11.50;102573.00;;;;5044945;28;20207;-76
2024/02/02 06:44:40;;;;;;;8.88;2.38;;;9.80;66.60;11.50;102563.00;;;;5046945;28;20661;-75
2024/02/02 06:47:07;;;;;;;14.60;2.38;;;9.90;66.70;11.50;102566.00;;;;5046909;28;20231;-75
2024/02/02 06:49:34;;;;;;;7.20;2.40;;;9.90;66.70;11.60;102563.00;;;;5040020;28;20237;-76
2024/02/02 06:52:01;;;;;;;9.68;2.38;;;9.90;66.70;11.60;102569.00;;;;5048664;28;20225;-75
2024/02/02 06:54:30;;;;;;;7.13;1.98;;;9.90;67.00;11.60;102569.00;;;;5042000;28;20549;-76
2024/02/02 06:56:57;;;;;;;6.45;2.25;;;9.90;66.70;11.60;102580.00;;;;5034667;28;20196;-74
2024/02/02 06:59:24;;;;;;;12.35;2.65;;;10.00;66.70;11.60;102570.00;;;;5041685;28;20414;-77
2024/02/02 07:01:51;;;;;;;7.07;2.38;;;10.00;66.80;11.70;102557.00;;;;5038733;28;20204;-76
2024/02/02 07:04:19;;;;;;;10.25;2.15;;;10.00;66.80;11.70;102551.00;;;;5039444;28;20301;-76
2024/02/02 07:06:46;;;;;;;8.48;2.72;;;10.00;66.80;11.70;102550.00;;;;5047769;28;20199;-73
2024/02/02 07:09:32;;;;;;;6.60;2.33;;;10.00;66.70;11.60;102552.00;;;;5048534;28;20242;-72
2024/02/02 07:12:02;;;;;;;7.88;2.28;;;10.10;66.90;11.70;102580.00;;;;5033834;28;20227;-72
2024/02/02 07:14:49;;;;;;;13.13;3.35;;;10.10;66.80;11.60;102563.00;;;;5035518;28;20654;-72
2024/02/02 07:17:36;;;;;;;9.90;2.30;;;10.10;67.10;11.70;102573.00;;;;5050894;28;20200;-72
2024/02/02 07:20:09;;;;;;;10.85;2.67;;;10.10;66.80;11.70;102557.00;;;;5038277;28;20199;-72
2024/02/02 07:22:39;;;;;;;13.48;2.80;;;10.20;66.90;11.80;102555.00;;;;5042213;28;20721;-72
2024/02/02 07:25:11;;;;;;;9.18;2.67;;;10.20;66.90;11.80;102556.00;;;;5034584;28;20199;-72
2024/02/02 07:27:57;;;;;;;13.20;3.20;;;10.20;67.00;11.70;102563.00;;;;5034510;28;20753;-72
2024/02/02 07:30:59;;;;;;;4.63;1.90;;;10.20;66.90;11.80;102560.00;;;;5034365;28;20220;-72
2024/02/02 07:33:34;;;;;;;10.48;3.08;;;10.20;67.10;11.80;102565.00;;;;5033844;28;20192;-72
2024/02/02 07:36:02;;;;;;;8.70;2.20;;;10.30;66.90;11.90;102570.00;;;;5034854;28;20227;-72
2024/02/02 07:38:53;;;;;;;11.85;2.42;;;10.30;66.90;11.80;102571.00;;;;5034543;28;20220;-72
2024/02/02 07:41:24;;;;;;;9.13;2.28;;;10.30;67.10;11.90;102568.00;;;;5035215;28;20295;-72
2024/02/02 07:43:51;;;;;;;7.07;2.13;;;10.30;67.00;12.00;102566.00;;;;5036851;28;20230;-72
2024/02/02 07:46:18;;;;;;;7.60;2.67;;;10.30;67.00;12.00;102569.00;;;;5034296;28;20208;-73
2024/02/02 07:48:48;;;;;;;17.65;3.22;;;10.40;67.00;12.00;102568.00;;;;5033769;28;20250;-72
2024/02/02 07:51:17;;;;;;;12.85;2.70;;;10.40;67.00;12.10;102568.00;;;;5038042;28;20224;-72
2024/02/02 07:53:45;;;;;;;7.55;2.47;;;10.40;67.00;12.10;102562.00;;;;5033848;28;20188;-72
2024/02/02 07:56:13;;;;;;;8.77;2.80;;;10.40;67.00;12.10;102567.00;;;;5034160;28;20193;-72
2024/02/02 07:58:42;;;;;;;12.30;3.45;;;10.40;67.10;12.10;102564.00;;;;5034167;28;20200;-72
2024/02/02 08:01:10;;;;;;;8.90;2.78;;;10.40;67.10;12.10;102568.00;;;;5041880;28;20192;-72
2024/02/02 08:03:38;;;;;;;12.35;3.45;;;10.50;67.10;12.20;102574.00;;;;5052465;28;20227;-72
2024/02/02 08:06:06;;;;;;;8.02;2.53;;;10.50;67.10;12.20;102559.00;;;;5046009;28;20202;-72
2024/02/02 08:08:35;;;;;;;14.55;2.28;;;10.50;67.80;12.20;102566.00;;;;5047518;28;20307;-73
2024/02/02 08:11:03;;;;;;;8.38;2.38;;;10.50;67.10;12.20;102569.00;;;;5033345;28;20224;-73
2024/02/02 08:13:30;;;;;;;15.02;2.97;;;10.60;67.10;12.20;102565.00;;;;5042378;28;20288;-73
2024/02/02 08:15:59;;;;;;;11.18;2.65;;;10.60;67.10;12.30;102552.00;;;;5051701;28;20210;-72
2024/02/02 08:18:26;;;;;;;9.43;2.75;;;10.60;67.10;12.30;102551.00;;;;5051532;28;20198;-73
2024/02/02 08:20:53;;;;;;;9.65;2.15;;;10.60;67.10;12.30;102540.00;;;;5044988;28;20208;-73
2024/02/02 08:23:20;;;;;;;9.13;2.65;;;10.60;67.10;12.40;102550.00;;;;5052855;28;20215;-72
2024/02/02 08:25:47;;;;;;;9.18;2.35;;;10.70;67.20;12.40;102554.00;;;;5045256;28;20200;-72
2024/02/02 08:28:14;;;;;;;8.32;2.47;;;10.70;67.10;12.40;102555.00;;;;5041189;28;20288;-72
2024/02/02 08:30:41;;;;;;;8.80;2.58;;;10.70;67.10;12.40;102557.00;;;;5045657;28;20696;-72
2024/02/02 08:33:10;;;;;;;7.68;2.10;;;10.70;67.10;12.40;102557.00;;;;5051838;28;20201;-72
2024/02/02 08:35:37;;;;;;;8.13;2.20;;;10.70;67.10;12.50;102549.00;;;;5040437;28;20211;-75
2024/02/02 08:38:08;;;;;;;10.35;2.50;;;10.80;67.20;12.50;102544.00;;;;5047937;28;20586;-75
2024/02/02 08:40:39;;;;;;;8.05;2.63;;;10.80;67.20;12.50;102543.00;;;;5052253;28;20261;-74
2024/02/02 08:43:12;;;;;;;7.85;3.10;;;10.80;67.20;12.50;102538.00;;;;5039755;28;20662;-73
2024/02/02 08:46:09;;;;;;;10.05;2.92;;;10.80;67.20;12.50;102539.00;;;;5051011;28;20187;-74
2024/02/02 08:48:44;;;;;;;11.13;2.33;;;10.90;67.40;12.60;102538.00;;;;5035854;28;20211;-74
2024/02/02 08:51:52;;;;;;;8.05;3.47;;;11.00;67.40;12.50;102531.00;;;;5032735;28;20310;-74
2024/02/02 08:54:43;;;;;;;10.57;2.15;;;11.00;67.50;12.50;102528.00;;;;5032825;28;20581;-75
2024/02/02 08:57:57;;;;;;;9.18;2.22;;;10.90;67.40;12.60;102528.00;;;;5047608;28;20200;-75
2024/02/02 09:00:39;;;;;;;12.57;2.53;;;11.00;67.50;12.60;102529.00;;;;5041438;28;20564;-74
2024/02/02 09:03:26;;;;;;;7.72;2.55;;;11.00;67.50;12.60;102532.00;;;;5048801;28;20539;-75
2024/02/02 09:05:58;;;;;;;11.23;3.33;;;11.10;67.60;12.80;102527.00;;;;5037639;28;20227;-75
2024/02/02 09:08:33;;;;;;;9.90;2.90;;;11.10;67.50;12.80;102525.00;;;;5041219;28;20661;-78
2024/02/02 09:11:21;;;;;;;8.43;2.45;;;11.20;67.60;12.80;102525.00;;;;5049763;28;20214;-75
2024/02/02 09:13:56;;;;;;;6.18;2.60;;;11.20;67.80;12.90;102518.00;;;;5052607;28;20196;-75
2024/02/02 09:16:38;;;;;;;8.88;2.75;;;11.20;67.60;12.90;102531.00;;;;5046828;28;20274;-78
2024/02/02 09:19:16;;;;;;;11.25;2.90;;;11.30;67.70;12.90;102530.00;;;;5032587;28;20740;-75
2024/02/02 09:21:45;;;;;;;11.40;3.00;;;11.30;67.60;13.00;102525.00;;;;5048554;28;20214;-75
2024/02/02 09:24:27;;;;;;;12.35;3.47;;;11.40;67.70;13.00;102517.00;;;;5039344;28;20216;-75
2024/02/02 09:26:58;;;;;;;12.95;2.78;;;11.40;68.40;13.10;102535.00;;;;5052351;28;20202;-75
2024/02/02 09:29:25;;;;;;;7.63;2.15;;;11.40;67.60;13.20;102527.00;;;;5051169;28;20294;-76
2024/02/02 09:31:52;;;;;;;9.23;2.78;;;11.50;67.60;13.20;102538.00;;;;5036172;28;20509;-75
2024/02/02 09:34:24;;;;;;;11.35;3.38;;;11.60;67.70;13.20;102532.00;;;;5041191;28;20269;-75
2024/02/02 09:36:53;;;;;;;9.10;3.00;;;11.50;67.60;13.30;102523.00;;;;5040323;28;20192;-76
2024/02/02 09:39:50;;;;;;;8.70;3.28;;;11.60;67.60;13.20;102534.00;;;;5044096;28;20211;-75
2024/02/02 09:42:51;;;;;;;9.15;3.30;;;11.60;67.70;13.30;102524.00;;;;5032288;28;20212;-75
2024/02/02 09:45:44;;;;;;;8.05;3.03;;;11.70;67.70;13.30;102521.00;;;;5031848;28;20206;-75
2024/02/02 09:48:29;;;;;;;13.25;4.70;;;11.70;67.50;13.40;102527.00;;;;5038995;28;20192;-76
2024/02/02 09:51:10;;;;;;;9.23;3.20;;;11.80;67.50;13.40;102528.00;;;;5052315;28;20696;-76
2024/02/02 09:54:15;;;;;;;14.23;3.75;;;11.80;67.40;13.40;102521.00;;;;5046269;28;20203;-79
2024/02/02 09:57:00;;;;;;;15.98;4.82;;;11.80;67.50;13.50;102522.00;;;;5046001;28;20243;-78
2024/02/02 09:59:53;;;;;;;14.82;3.58;;;11.90;67.50;13.40;102535.00;;;;5037787;28;20195;-80
2024/02/02 10:02:42;;;;;;;10.52;3.30;;;11.90;67.50;13.50;102534.00;;;;5042756;28;20200;-75
2024/02/02 10:05:22;;;;;;;7.25;3.47;;;11.90;67.40;13.50;102530.00;;;;5048902;28;20223;-76
2024/02/02 10:08:12;;;;;;;11.60;3.33;;;12.00;67.40;13.50;102528.00;;;;5040705;28;20216;-76
2024/02/02 10:11:19;;;;;;;11.10;3.72;;;12.00;67.50;13.50;102529.00;;;;5030956;28;20707;-75
2024/02/02 10:14:09;;;;;;;9.18;3.28;;;12.00;67.50;13.60;102539.00;;;;5030102;28;20202;-76
2024/02/02 10:16:55;;;;;;;10.70;2.97;;;12.00;67.50;13.60;102544.00;;;;5031525;28;20268;-76
2024/02/02 10:19:50;;;;;;;12.57;3.60;;;12.10;67.60;13.60;102533.00;;;;5038145;28;22094;-77
2024/02/02 10:22:52;;;;;;;14.05;3.83;;;12.10;67.60;13.70;102531.00;;;;5032739;28;20211;-75
2024/02/02 10:25:47;;;;;;;11.65;4.47;;;12.10;67.60;13.70;102538.00;;;;5031948;28;20298;-75
2024/02/02 10:28:37;;;;;;;11.85;3.75;;;12.20;67.60;13.70;102533.00;;;;5044423;28;20199;-76
2024/02/02 10:31:27;;;;;;;8.38;3.50;;;12.20;67.60;13.80;102540.00;;;;5036398;28;20688;-76
2024/02/02 10:34:20;;;;;;;15.45;3.72;;;12.30;67.70;13.80;102535.00;;;;5036797;28;20203;-79
2024/02/02 10:37:10;;;;;;;9.00;4.28;;;12.30;67.70;13.90;102536.00;;;;5032999;28;20220;-76
2024/02/02 10:40:00;;;;;;;12.18;3.60;;;12.30;67.70;13.90;102527.00;;;;5044587;28;20227;-76
2024/02/02 10:42:55;;;;;;;12.07;3.58;;;12.40;67.70;13.90;102526.00;;;;5042217;28;20198;-76
2024/02/02 10:45:36;;;;;;;8.63;3.70;;;12.40;67.70;14.00;102531.00;;;;5035261;28;20230;-75
2024/02/02 10:48:32;;;;;;;10.82;3.78;;;12.40;67.70;14.00;102534.00;;;;5041344;28;20278;-76
2024/02/02 10:51:12;;;;;;;9.82;3.75;;;12.50;67.70;14.10;102547.00;;;;5046866;28;20219;-75
2024/02/02 10:54:01;;;;;;;16.02;4.50;;;12.50;67.60;14.10;102539.00;;;;5042295;28;20299;-77
2024/02/02 10:56:44;;;;;;;12.18;4.28;;;12.60;67.60;14.10;102550.00;;;;5046316;28;20196;-76
2024/02/02 10:59:27;;;;;;;16.98;4.47;;;12.60;67.50;14.10;102546.00;;;;5039639;28;20278;-77
2024/02/02 11:02:04;;;;;;;10.00;4.80;;;12.60;67.40;14.10;102538.00;;;;5032749;28;20583;-77
2024/02/02 11:04:57;;;;;;;8.70;4.05;;;12.60;67.40;14.10;102527.00;;;;5041671;28;20230;-73